Αρχική σελίδα
METAR-TAF:

METAR-TAF

Αεροδρόμια :

Norman Wells, Βορειοδυτικά Εδάφη, Καναδάς

γεωγραφικό πλάτος: 65-17N, γεωγραφικό μήκος: 126-48W, υψόμετρο: 67 μ

Παρών καιρός

Η αναφορά έγινε 56 λεπτά πριν, στις 06:00 UTC
Άνεμος 11 kt από Α/NA
Θερμοκρασία -24°C
Υγρασία 69%
Πίεση 1017 hPa
Ορατότητα: 48.3 χλμ
Καθαρός ουρανός

METAR: CYVQ 190600Z 11011KT 30SM SKC M24/M28 A3002 RMK SLP179

Χρόνος: 23:56 (06:56 UTC)

Πρόγνωση Καιρού

Η αναφορά έγινε 1 ώρα και 18 λεπτά πριν, στις 05:38 UTC
Η πρόγνωση ισχύει από τις 19 στις 06 UTC έως τις 19 στις 18 UTC
Άνεμος 5 kt από Α/NA
Ορατότητα: 10 χλμ
Καθαρός ουρανός

TAF: CYVQ 190538Z 1906/1918 11005KT P6SM SKC RMK NXT FCST BY 191200Z

Μετεωρολογικές αναφορές και προγνώσεις για περισσότερα από 4000 αεροδρόμια (δελτία METAR και TAF).

Οι διαθέσιμοι σταθμοί απεικονίζονται στο χάρτη με κίτρινες και κόκκινες κουκκίδες.

Μετακινήστε το ποντίκι πάνω από τις κουκκίδες για να δείτε το όνομα του σταθμού.

Στη συνέχεια, κάντε κλικ για να δείτε τις μετεωρολογικές αναφορές και τις προγνώσεις καιρού.

Για να αλλάξετε το χάρτη: κάντε κλικ στα πράσινα κουμπιά με τον μαύρο σταυρό για να ζουμάρετε, στο πράσινο κουμπί με την παύλα για να αφαιρέσετε το ζουμ ή στα πράσινα βέλη για να αντιπαραβάλλετε χάρτες.


METAR-TAF: